Positano — IJZJ — position and weather

sailwx.info

Track history (hours):
 
Tides and Currents Weather Stations Pressure Air Temp Water Temp Dewpoint Dewpoint Depression Visibility Wind Speed Wind Dir Waves Ship Positions

Positano

Last reported at 2017-Jun-23 16:28 UTC. Time now 2017-Jun-23 18:58 UTC.
Position N 40°33' E 014°16'.

Length 12 m.

MMSI: 247208300.

Date/timePositionNaut miles runAvg speedWind from/ knotsBaromVisibWave heightAir tempDewpointWater temp
2017-Jun-23 16:28N 40°33' E 014°16'2 5.0
2017-Jun-23 16:00N 40°32' E 014°13'1 1.5
2017-Jun-23 15:01N 40°33' E 014°14'0 1.3
2017-Jun-23 14:56N 40°33' E 014°15'6 1.0
2017-Jun-23 09:20N 40°37' E 014°20'2 6.1
2017-Jun-23 09:00N 40°38' E 014°23'1 2.7
2017-Jun-23 08:30N 40°38' E 014°21'4 0.2
2017-Jun-22 15:15N 40°35' E 014°19'1 6.0
2017-Jun-22 15:00N 40°35' E 014°21'4 7.3
2017-Jun-22 14:28N 40°37' E 014°26'3 0.1
2017-Jun-21 13:44N 40°37' E 014°29'0 0.0
2017-Jun-21 13:15N 40°37' E 014°29'0 0.6
2017-Jun-21 12:52N 40°38' E 014°29'11 0.6
2017-Jun-20 16:15N 40°33' E 014°16'2 6.6
2017-Jun-20 16:00N 40°32' E 014°13'2 1.5
2017-Jun-20 14:56N 40°34' E 014°15'1 1.0
2017-Jun-20 14:00N 40°33' E 014°16'0 0.0
2017-Jun-20 13:30N 40°33' E 014°16'5 1.3
2017-Jun-20 09:21N 40°37' E 014°20'2 5.9
2017-Jun-20 09:00N 40°38' E 014°23'1 1.9
2017-Jun-20 08:30N 40°38' E 014°21'  
2017-Jun-17 16:22N 40°33' E 014°16'1 3.8
2017-Jun-17 16:00N 40°32' E 014°14'1 0.5
2017-Jun-17 13:27N 40°33' E 014°16'0 0.0
2017-Jun-17 13:00N 40°33' E 014°16'0 0.0
2017-Jun-17 12:22N 40°33' E 014°16'0 0.0
2017-Jun-17 12:00N 40°33' E 014°16'0 0.0
2017-Jun-17 11:30N 40°33' E 014°16'0 0.0
2017-Jun-17 10:59N 40°33' E 014°16'0 0.0
2017-Jun-17 10:27N 40°33' E 014°16'1 0.0
2017-Jun-16 16:16N 40°32' E 014°15'2 5.6
2017-Jun-16 15:59N 40°32' E 014°13'2 0.4
2017-Jun-16 11:11N 40°33' E 014°16'0 0.0
2017-Jun-16 10:59N 40°33' E 014°16'1 0.1
2017-Jun-15 23:11N 40°33' E 014°14'1 0.2
2017-Jun-15 16:12N 40°32' E 014°15'1 6.5
2017-Jun-15 16:00N 40°32' E 014°14'1 1.5
2017-Jun-15 15:00N 40°34' E 014°15'1 2.0
2017-Jun-15 14:30N 40°33' E 014°16'0 0.1
2017-Jun-15 12:47N 40°33' E 014°16'0 0.0
2017-Jun-15 12:28N 40°33' E 014°16'0 0.0
2017-Jun-15 11:58N 40°33' E 014°16'0 0.0
2017-Jun-15 10:47N 40°33' E 014°16'2 2.2
2017-Jun-15 10:03N 40°34' E 014°16'010.2
2017-Jun-15 10:00N 40°35' E 014°17'4 6.7
2017-Jun-15 09:26N 40°37' E 014°20'1 0.1
2017-Jun-14 15:47N 40°37' E 014°20'1 3.4
2017-Jun-14 15:30N 40°36' E 014°19'2 4.6
2017-Jun-14 15:00N 40°35' E 014°22'6 5.6
2017-Jun-14 13:58N 40°37' E 014°29'0 0.0
2017-Jun-14 13:30N 40°37' E 014°29'0 0.3
2017-Jun-14 13:00N 40°38' E 014°29'1 2.7
2017-Jun-14 12:30N 40°37' E 014°31'  
Track history (hours):
 
Tides and Currents Weather Stations Pressure Air Temp Water Temp Dewpoint Dewpoint Depression Visibility Wind Speed Wind Dir Waves Ship Positions

Positano

Last reported at 2017-Jun-23 16:28 UTC. Time now 2017-Jun-23 18:58 UTC.
Position N 40°33' E 014°16'.

Length 12 m.

MMSI: 247208300.

Date/timePositionNaut miles runAvg speedWind from/ knotsBaromVisibWave heightAir tempDewpointWater temp
2017-Jun-23 16:28N 40°33' E 014°16'2 5.0
2017-Jun-23 16:00N 40°32' E 014°13'1 1.5
2017-Jun-23 15:01N 40°33' E 014°14'0 1.3
2017-Jun-23 14:56N 40°33' E 014°15'6 1.0
2017-Jun-23 09:20N 40°37' E 014°20'2 6.1
2017-Jun-23 09:00N 40°38' E 014°23'1 2.7
2017-Jun-23 08:30N 40°38' E 014°21'4 0.2
2017-Jun-22 15:15N 40°35' E 014°19'1 6.0
2017-Jun-22 15:00N 40°35' E 014°21'4 7.3
2017-Jun-22 14:28N 40°37' E 014°26'3 0.1
2017-Jun-21 13:44N 40°37' E 014°29'0 0.0
2017-Jun-21 13:15N 40°37' E 014°29'0 0.6
2017-Jun-21 12:52N 40°38' E 014°29'11 0.6
2017-Jun-20 16:15N 40°33' E 014°16'2 6.6
2017-Jun-20 16:00N 40°32' E 014°13'2 1.5
2017-Jun-20 14:56N 40°34' E 014°15'1 1.0
2017-Jun-20 14:00N 40°33' E 014°16'0 0.0
2017-Jun-20 13:30N 40°33' E 014°16'5 1.3
2017-Jun-20 09:21N 40°37' E 014°20'2 5.9
2017-Jun-20 09:00N 40°38' E 014°23'1 1.9
2017-Jun-20 08:30N 40°38' E 014°21'  
2017-Jun-17 16:22N 40°33' E 014°16'1 3.8
2017-Jun-17 16:00N 40°32' E 014°14'1 0.5
2017-Jun-17 13:27N 40°33' E 014°16'0 0.0
2017-Jun-17 13:00N 40°33' E 014°16'0 0.0
2017-Jun-17 12:22N 40°33' E 014°16'0 0.0
2017-Jun-17 12:00N 40°33' E 014°16'0 0.0
2017-Jun-17 11:30N 40°33' E 014°16'0 0.0
2017-Jun-17 10:59N 40°33' E 014°16'0 0.0
2017-Jun-17 10:27N 40°33' E 014°16'1 0.0
2017-Jun-16 16:16N 40°32' E 014°15'2 5.6
2017-Jun-16 15:59N 40°32' E 014°13'2 0.4
2017-Jun-16 11:11N 40°33' E 014°16'0 0.0
2017-Jun-16 10:59N 40°33' E 014°16'1 0.1
2017-Jun-15 23:11N 40°33' E 014°14'1 0.2
2017-Jun-15 16:12N 40°32' E 014°15'1 6.5
2017-Jun-15 16:00N 40°32' E 014°14'1 1.5
2017-Jun-15 15:00N 40°34' E 014°15'1 2.0
2017-Jun-15 14:30N 40°33' E 014°16'0 0.1
2017-Jun-15 12:47N 40°33' E 014°16'0 0.0
2017-Jun-15 12:28N 40°33' E 014°16'0 0.0
2017-Jun-15 11:58N 40°33' E 014°16'0 0.0
2017-Jun-15 10:47N 40°33' E 014°16'2 2.2
2017-Jun-15 10:03N 40°34' E 014°16'010.2
2017-Jun-15 10:00N 40°35' E 014°17'4 6.7
2017-Jun-15 09:26N 40°37' E 014°20'1 0.1
2017-Jun-14 15:47N 40°37' E 014°20'1 3.4
2017-Jun-14 15:30N 40°36' E 014°19'2 4.6
2017-Jun-14 15:00N 40°35' E 014°22'6 5.6
2017-Jun-14 13:58N 40°37' E 014°29'0 0.0
2017-Jun-14 13:30N 40°37' E 014°29'0 0.3
2017-Jun-14 13:00N 40°38' E 014°29'1 2.7
2017-Jun-14 12:30N 40°37' E 014°31'  

Dump ship's entire track history